Time;durP1;ratioP1;P1;durP2;ratioP2;P2;SDS_P1;SDS_P2;PMS_P1;PMS_P2;Temp;Humidity;BMP_temperature;BMP_pressure;BME280_temperature;BME280_humidity;BME280_pressure;Samples;Min_cycle;Max_cycle;Signal;HPM_P1;HPM_P2
2023/06/25 00:00:33;;;;;;;;;;;18.70;99.90;;;;;;4998694;28;19925;-81
2023/06/25 00:02:59;;;;;;;;;;;18.60;99.90;;;;;;5001626;28;20332;-82
2023/06/25 00:05:25;;;;;;;;;;;18.70;99.90;;;;;;4981476;28;20006;-81
2023/06/25 00:07:50;;;;;;;;;;;18.70;99.90;;;;;;5016101;28;20058;-82
2023/06/25 00:10:16;;;;;;;;;;;18.70;99.90;;;;;;4984112;28;20561;-81
2023/06/25 00:12:41;;;;;;;;;;;18.70;99.90;;;;;;4996050;28;19925;-80
2023/06/25 00:15:09;;;;;;;;;;;18.60;99.90;;;;;;4984461;28;19971;-81
2023/06/25 00:17:35;;;;;;;;;;;18.60;99.90;;;;;;5001701;28;19936;-81
2023/06/25 00:20:01;;;;;;;;;;;18.60;99.90;;;;;;4998948;28;19925;-82
2023/06/25 00:22:26;;;;;;;;;;;18.60;99.90;;;;;;4988226;28;19965;-81
2023/06/25 00:24:52;;;;;;;;;;;18.60;99.90;;;;;;5002447;28;19932;-81
2023/06/25 00:27:18;;;;;;;;;;;18.50;99.90;;;;;;5004378;28;19925;-81
2023/06/25 00:29:44;;;;;;;;;;;18.50;99.90;;;;;;5035982;28;19940;-82
2023/06/25 00:32:12;;;;;;;;;;;18.50;99.90;;;;;;4999755;28;20418;-82
2023/06/25 00:34:41;;;;;;;;;;;18.50;99.90;;;;;;4999561;28;19929;-81
2023/06/25 00:37:16;;;;;;;;;;;18.40;99.90;;;;;;4999471;28;19936;-81
2023/06/25 00:39:42;;;;;;;;;;;18.50;99.90;;;;;;5014991;28;19937;-81
2023/06/25 00:42:10;;;;;;;;;;;18.40;99.90;;;;;;5016245;28;20384;-81
2023/06/25 00:44:40;;;;;;;;;;;18.40;99.90;;;;;;5016246;28;20389;-81
2023/06/25 00:47:13;;;;;;;;;;;18.40;99.90;;;;;;5035211;28;19929;-81
2023/06/25 00:49:39;;;;;;;;;;;18.30;99.90;;;;;;4999012;28;19952;-82
2023/06/25 00:52:08;;;;;;;;;;;18.30;99.90;;;;;;5020868;28;19960;-81
2023/06/25 00:54:44;;;;;;;;;;;18.30;99.90;;;;;;5008745;28;19967;-81
2023/06/25 00:57:10;;;;;;;;;;;18.30;99.90;;;;;;5017914;28;19960;-81
2023/06/25 00:59:37;;;;;;;;;;;18.30;99.90;;;;;;5005489;28;19929;-81
2023/06/25 01:02:09;;;;;;;;;;;18.30;99.90;;;;;;5018751;28;19925;-81
2023/06/25 01:04:39;;;;;;;;;;;18.20;99.90;;;;;;5006740;28;19936;-82
2023/06/25 01:07:16;;;;;;;;;;;18.20;99.90;;;;;;5023396;28;19933;-81
2023/06/25 01:09:42;;;;;;;;;;;18.20;99.90;;;;;;4998298;28;19929;-82
2023/06/25 01:12:08;;;;;;;;;;;18.20;99.90;;;;;;5034251;28;19952;-82
2023/06/25 01:14:34;;;;;;;;;;;18.10;99.90;;;;;;4986410;28;19929;-81
2023/06/25 01:16:59;;;;;;;;;;;18.00;99.90;;;;;;4987695;28;19925;-82
2023/06/25 01:19:29;;;;;;;;;;;18.00;99.90;;;;;;5004561;28;19933;-81
2023/06/25 01:21:59;;;;;;;;;;;18.00;99.90;;;;;;5002181;28;19963;-82
2023/06/25 01:24:25;;;;;;;;;;;17.90;99.90;;;;;;5003356;28;19936;-82
2023/06/25 01:26:54;;;;;;;;;;;17.80;99.90;;;;;;5003344;28;19965;-82
2023/06/25 01:29:20;;;;;;;;;;;17.80;99.90;;;;;;5018637;28;19932;-82
2023/06/25 01:31:45;;;;;;;;;;;17.70;99.90;;;;;;5003951;28;19972;-82
2023/06/25 01:34:11;;;;;;;;;;;17.70;99.90;;;;;;5001133;28;19971;-82
2023/06/25 01:36:40;;;;;;;;;;;17.70;99.90;;;;;;5019926;28;19968;-81
2023/06/25 01:39:06;;;;;;;;;;;17.70;99.90;;;;;;5008465;28;20280;-82
2023/06/25 01:41:33;;;;;;;;;;;17.60;99.90;;;;;;5024412;28;19925;-82
2023/06/25 01:43:58;;;;;;;;;;;17.60;99.90;;;;;;5022986;28;19925;-82
2023/06/25 01:46:24;;;;;;;;;;;17.50;99.90;;;;;;5007811;28;20027;-82
2023/06/25 01:48:49;;;;;;;;;;;17.50;99.90;;;;;;5007936;28;19933;-82
2023/06/25 01:51:15;;;;;;;;;;;17.50;99.90;;;;;;4991558;28;20431;-82
2023/06/25 01:53:40;;;;;;;;;;;17.50;99.90;;;;;;4991438;28;19931;-81
2023/06/25 01:56:06;;;;;;;;;;;17.40;99.90;;;;;;5020995;28;19975;-81
2023/06/25 01:58:32;;;;;;;;;;;17.40;99.90;;;;;;5018155;28;20304;-81
2023/06/25 02:00:57;;;;;;;;;;;17.40;99.90;;;;;;4984449;28;19948;-82
2023/06/25 02:03:23;;;;;;;;;;;17.30;99.90;;;;;;5002436;28;19937;-82
2023/06/25 02:05:48;;;;;;;;;;;17.30;99.90;;;;;;4983944;28;19952;-81
2023/06/25 02:08:14;;;;;;;;;;;17.30;99.90;;;;;;4986326;28;19944;-82
2023/06/25 02:10:39;;;;;;;;;;;17.30;99.90;;;;;;5001252;28;20593;-82
2023/06/25 02:13:05;;;;;;;;;;;17.20;99.90;;;;;;5002415;28;19925;-82
2023/06/25 02:15:31;;;;;;;;;;;17.20;99.90;;;;;;4986746;28;20380;-82
2023/06/25 02:17:56;;;;;;;;;;;17.10;99.90;;;;;;5000113;28;19972;-82
2023/06/25 02:20:22;;;;;;;;;;;17.10;99.90;;;;;;4998458;28;19932;-82
2023/06/25 02:22:48;;;;;;;;;;;17.10;99.90;;;;;;4984239;28;19929;-82
2023/06/25 02:25:13;;;;;;;;;;;17.10;99.90;;;;;;5018578;28;20091;-82
2023/06/25 02:27:39;;;;;;;;;;;17.10;99.90;;;;;;4983456;28;19926;-82
2023/06/25 02:30:05;;;;;;;;;;;17.10;99.90;;;;;;5018058;28;19948;-82
2023/06/25 02:32:30;;;;;;;;;;;17.00;99.90;;;;;;5019631;28;19933;-82
2023/06/25 02:34:56;;;;;;;;;;;17.00;99.90;;;;;;4999585;28;19933;-82
2023/06/25 02:37:22;;;;;;;;;;;17.00;99.90;;;;;;4997912;28;19933;-82
2023/06/25 02:39:47;;;;;;;;;;;17.10;99.90;;;;;;4999846;28;19925;-82
2023/06/25 02:42:13;;;;;;;;;;;17.00;99.90;;;;;;5000897;28;19966;-82
2023/06/25 02:44:38;;;;;;;;;;;17.00;99.90;;;;;;5001089;28;19980;-82
2023/06/25 02:47:04;;;;;;;;;;;17.00;99.90;;;;;;4982836;28;19935;-82
2023/06/25 02:49:30;;;;;;;;;;;17.00;99.90;;;;;;5014902;28;19936;-82
2023/06/25 02:51:55;;;;;;;;;;;17.00;99.90;;;;;;5003782;28;20409;-82
2023/06/25 02:54:21;;;;;;;;;;;17.00;99.90;;;;;;5014769;28;19925;-82
2023/06/25 02:56:46;;;;;;;;;;;17.00;99.90;;;;;;4984436;28;19933;-82
2023/06/25 02:59:12;;;;;;;;;;;17.00;99.90;;;;;;5014562;28;20183;-82
2023/06/25 03:01:38;;;;;;;;;;;17.00;99.90;;;;;;5001429;28;19932;-82
2023/06/25 03:04:03;;;;;;;;;;;16.90;99.90;;;;;;4982992;28;19929;-82
2023/06/25 03:06:29;;;;;;;;;;;16.90;99.90;;;;;;4996784;28;19929;-82
2023/06/25 03:08:54;;;;;;;;;;;16.90;99.90;;;;;;4984759;28;19932;-82
2023/06/25 03:11:20;;;;;;;;;;;16.90;99.90;;;;;;5000926;28;19930;-82
2023/06/25 03:13:45;;;;;;;;;;;16.90;99.90;;;;;;4982013;28;19929;-83
2023/06/25 03:16:11;;;;;;;;;;;16.90;99.90;;;;;;5001961;28;20001;-82
2023/06/25 03:18:37;;;;;;;;;;;16.90;99.90;;;;;;4999754;28;19996;-82
2023/06/25 03:21:02;;;;;;;;;;;16.90;99.90;;;;;;5014260;28;19925;-82
2023/06/25 03:23:28;;;;;;;;;;;16.90;99.90;;;;;;4982166;28;19926;-82
2023/06/25 03:25:54;;;;;;;;;;;16.90;99.90;;;;;;4983057;28;19926;-82
2023/06/25 03:28:19;;;;;;;;;;;16.90;99.90;;;;;;4985021;28;19980;-82
2023/06/25 03:30:46;;;;;;;;;;;16.90;99.90;;;;;;5014575;28;20016;-82
2023/06/25 03:33:11;;;;;;;;;;;16.90;99.90;;;;;;5016737;28;20696;-82
2023/06/25 03:35:37;;;;;;;;;;;17.00;99.90;;;;;;4982294;28;19988;-82
2023/06/25 03:38:03;;;;;;;;;;;17.00;99.90;;;;;;4998700;28;19925;-83
2023/06/25 03:40:28;;;;;;;;;;;17.00;99.90;;;;;;4984647;28;19929;-82
2023/06/25 03:42:54;;;;;;;;;;;17.00;99.90;;;;;;4998275;28;19956;-82
2023/06/25 03:45:19;;;;;;;;;;;17.00;99.90;;;;;;4984139;28;19935;-82
2023/06/25 03:47:45;;;;;;;;;;;17.00;99.90;;;;;;5013420;28;19926;-82
2023/06/25 03:50:10;;;;;;;;;;;17.00;99.90;;;;;;4999101;28;20412;-82
2023/06/25 03:52:36;;;;;;;;;;;17.10;99.90;;;;;;4999595;28;19929;-82
2023/06/25 03:55:02;;;;;;;;;;;17.00;99.90;;;;;;5001668;28;19925;-82
2023/06/25 03:57:28;;;;;;;;;;;17.10;99.90;;;;;;5000446;28;19933;-82
2023/06/25 03:59:54;;;;;;;;;;;17.10;99.90;;;;;;4998299;28;19925;-82
2023/06/25 04:02:20;;;;;;;;;;;17.10;99.90;;;;;;5016490;28;19925;-82
2023/06/25 04:04:45;;;;;;;;;;;17.00;99.90;;;;;;5000073;28;19925;-83
2023/06/25 04:07:11;;;;;;;;;;;17.00;99.90;;;;;;4983511;28;19992;-83
2023/06/25 04:09:36;;;;;;;;;;;17.10;99.90;;;;;;4983037;28;19963;-82
2023/06/25 04:12:02;;;;;;;;;;;17.10;99.90;;;;;;4999649;28;19936;-83
2023/06/25 04:14:28;;;;;;;;;;;17.10;99.90;;;;;;4979379;28;19992;-82
2023/06/25 04:16:53;;;;;;;;;;;17.20;99.90;;;;;;5033567;28;19948;-82
2023/06/25 04:19:19;;;;;;;;;;;17.20;99.90;;;;;;4981936;28;19992;-82
2023/06/25 04:21:44;;;;;;;;;;;17.20;99.90;;;;;;4984315;28;19964;-82
2023/06/25 04:24:10;;;;;;;;;;;17.30;99.90;;;;;;4982954;28;19930;-82
2023/06/25 04:26:36;;;;;;;;;;;17.30;99.90;;;;;;4999870;28;20380;-82
2023/06/25 04:29:02;;;;;;;;;;;17.30;99.90;;;;;;4987058;28;19925;-83
2023/06/25 04:31:28;;;;;;;;;;;17.40;99.90;;;;;;5004622;28;20128;-82
2023/06/25 04:33:53;;;;;;;;;;;17.50;99.90;;;;;;4987595;28;19925;-82
2023/06/25 04:36:20;;;;;;;;;;;17.50;99.90;;;;;;5001757;28;19976;-82
2023/06/25 04:38:45;;;;;;;;;;;17.60;99.90;;;;;;5034068;28;19933;-82
2023/06/25 04:41:11;;;;;;;;;;;17.60;99.90;;;;;;5006951;28;19931;-82
2023/06/25 04:43:36;;;;;;;;;;;17.70;99.90;;;;;;4991063;28;19925;-82
2023/06/25 04:46:02;;;;;;;;;;;17.80;99.90;;;;;;4992410;28;19935;-82
2023/06/25 04:48:27;;;;;;;;;;;17.80;99.90;;;;;;4990811;28;20451;-82
2023/06/25 04:50:53;;;;;;;;;;;17.80;99.90;;;;;;5008977;28;19937;-82
2023/06/25 04:53:18;;;;;;;;;;;18.00;99.90;;;;;;5023615;28;19940;-82
2023/06/25 04:55:44;;;;;;;;;;;18.10;99.90;;;;;;5008821;28;19925;-82
2023/06/25 04:58:10;;;;;;;;;;;18.20;99.90;;;;;;5006404;28;20400;-82
2023/06/25 05:00:35;;;;;;;;;;;18.30;99.90;;;;;;5016615;28;19936;-82
2023/06/25 05:03:01;;;;;;;;;;;18.30;99.90;;;;;;5004347;28;19925;-83
2023/06/25 05:05:26;;;;;;;;;;;18.50;99.90;;;;;;4997665;28;19940;-82
2023/06/25 05:07:52;;;;;;;;;;;18.70;99.90;;;;;;4992447;28;19925;-83
2023/06/25 05:10:18;;;;;;;;;;;19.00;99.90;;;;;;5008466;28;19925;-83
2023/06/25 05:12:43;;;;;;;;;;;19.20;99.90;;;;;;5008435;28;19964;-83
2023/06/25 05:15:09;;;;;;;;;;;19.50;99.90;;;;;;5007815;28;19939;-83
2023/06/25 05:17:35;;;;;;;;;;;20.00;99.90;;;;;;4988853;28;19933;-83
2023/06/25 05:20:00;;;;;;;;;;;20.50;99.90;;;;;;4986522;28;19926;-82
2023/06/25 05:22:26;;;;;;;;;;;21.10;99.90;;;;;;4986661;28;19985;-83
2023/06/25 05:24:52;;;;;;;;;;;21.70;99.90;;;;;;5002820;28;19925;-83
2023/06/25 05:27:17;;;;;;;;;;;22.20;99.90;;;;;;4986091;28;20359;-83
2023/06/25 05:29:43;;;;;;;;;;;22.70;99.90;;;;;;5005328;28;19929;-83
2023/06/25 05:32:08;;;;;;;;;;;23.10;99.90;;;;;;4987169;28;20000;-83
2023/06/25 05:34:34;;;;;;;;;;;23.40;99.90;;;;;;5019314;28;19929;-83
2023/06/25 05:36:59;;;;;;;;;;;23.80;99.90;;;;;;4986583;28;19932;-83
2023/06/25 05:39:31;;;;;;;;;;;24.00;99.90;;;;;;4998552;28;19961;-83
2023/06/25 05:42:00;;;;;;;;;;;24.30;99.90;;;;;;4996629;28;19996;-83
2023/06/25 05:44:26;;;;;;;;;;;24.60;99.90;;;;;;5024120;28;20408;-83
2023/06/25 05:46:52;;;;;;;;;;;24.80;99.90;;;;;;5005421;28;19940;-83
2023/06/25 05:49:17;;;;;;;;;;;24.90;99.90;;;;;;4985669;28;20012;-82
2023/06/25 05:51:43;;;;;;;;;;;25.00;99.90;;;;;;5018592;28;20015;-83
2023/06/25 05:54:09;;;;;;;;;;;25.30;99.90;;;;;;5014135;28;19936;-83
2023/06/25 05:56:34;;;;;;;;;;;25.50;99.90;;;;;;5001744;28;19925;-83
2023/06/25 05:59:00;;;;;;;;;;;25.70;99.90;;;;;;5036589;28;19932;-83
2023/06/25 06:01:26;;;;;;;;;;;26.00;99.90;;;;;;4984715;28;20417;-83
2023/06/25 06:03:51;;;;;;;;;;;26.20;99.90;;;;;;5001418;28;19931;-83
2023/06/25 06:06:17;;;;;;;;;;;26.40;99.90;;;;;;4986576;28;19925;-83
2023/06/25 06:08:43;;;;;;;;;;;26.70;99.90;;;;;;5005465;28;19925;-83
2023/06/25 06:11:10;;;;;;;;;;;26.90;99.90;;;;;;5007690;28;20376;-83
2023/06/25 06:13:36;;;;;;;;;;;27.00;99.90;;;;;;4985331;28;19925;-83
2023/06/25 06:16:01;;;;;;;;;;;27.20;99.90;;;;;;4985130;28;19925;-83
2023/06/25 06:18:27;;;;;;;;;;;27.30;99.90;;;;;;4998266;28;19944;-84
2023/06/25 06:20:53;;;;;;;;;;;27.60;99.90;;;;;;5002841;28;19929;-83
2023/06/25 06:23:18;;;;;;;;;;;27.70;99.90;;;;;;5001157;28;19937;-83
2023/06/25 06:25:44;;;;;;;;;;;27.80;99.90;;;;;;4984379;28;19926;-83
2023/06/25 06:28:09;;;;;;;;;;;27.90;99.90;;;;;;4985202;28;19926;-83
2023/06/25 06:30:35;;;;;;;;;;;28.10;99.90;;;;;;4985380;28;20370;-83
2023/06/25 06:33:01;;;;;;;;;;;28.30;99.90;;;;;;4995524;28;19930;-83
2023/06/25 06:35:26;;;;;;;;;;;28.50;99.60;;;;;;4983196;28;19929;-83
2023/06/25 06:37:52;;;;;;;;;;;28.70;99.90;;;;;;4985982;28;19935;-83
2023/06/25 06:40:17;;;;;;;;;;;28.90;99.90;;;;;;5000068;28;19925;-82
2023/06/25 06:42:43;;;;;;;;;;;29.00;98.80;;;;;;4999718;28;19925;-83
2023/06/25 06:45:09;;;;;;;;;;;29.20;99.90;;;;;;4987271;28;19925;-83
2023/06/25 06:47:34;;;;;;;;;;;29.30;97.50;;;;;;5000185;28;19925;-83
2023/06/25 06:50:00;;;;;;;;;;;29.40;96.20;;;;;;4994819;28;19976;-83
2023/06/25 06:52:26;;;;;;;;;;;29.60;98.90;;;;;;5001355;28;19925;-83
2023/06/25 06:54:51;;;;;;;;;;;29.50;97.70;;;;;;5015939;28;19993;-83
2023/06/25 06:57:17;;;;;;;;;;;29.50;93.00;;;;;;4999311;28;19936;-82
2023/06/25 06:59:46;;;;;;;;;;;29.50;94.30;;;;;;5003479;28;19932;-82
2023/06/25 07:02:11;;;;;;;;;;;29.70;94.20;;;;;;4989372;28;20032;-82
2023/06/25 07:04:38;;;;;;;;;;;29.70;93.70;;;;;;4998839;28;20435;-82
2023/06/25 07:07:03;;;;;;;;;;;29.90;93.40;;;;;;4984129;28;20012;-82
2023/06/25 07:09:29;;;;;;;;;;;30.00;96.20;;;;;;4999356;28;20022;-82
2023/06/25 07:11:54;;;;;;;;;;;30.10;95.00;;;;;;4984590;28;19941;-83
2023/06/25 07:14:20;;;;;;;;;;;30.30;93.60;;;;;;4998847;28;19941;-82
2023/06/25 07:16:46;;;;;;;;;;;30.30;93.00;;;;;;4983529;28;20450;-83
2023/06/25 07:19:11;;;;;;;;;;;30.50;92.60;;;;;;4997246;28;20245;-83
2023/06/25 07:21:37;;;;;;;;;;;30.70;92.20;;;;;;5000899;28;19925;-83
2023/06/25 07:24:03;;;;;;;;;;;30.70;90.60;;;;;;4996960;28;19925;-83
2023/06/25 07:26:29;;;;;;;;;;;30.90;93.40;;;;;;5000615;28;19925;-83
2023/06/25 07:28:55;;;;;;;;;;;31.00;90.40;;;;;;5012064;28;20026;-82
2023/06/25 07:31:20;;;;;;;;;;;31.10;91.90;;;;;;4982760;28;19929;-81
2023/06/25 07:33:46;;;;;;;;;;;31.20;92.80;;;;;;5014623;28;19940;-82
2023/06/25 07:36:12;;;;;;;;;;;31.20;90.70;;;;;;4983903;28;19925;-81
2023/06/25 07:38:37;;;;;;;;;;;31.20;90.80;;;;;;5033831;28;19929;-81
2023/06/25 07:41:03;;;;;;;;;;;31.20;91.70;;;;;;5005019;28;19975;-81
2023/06/25 07:43:29;;;;;;;;;;;31.40;91.30;;;;;;5001701;28;20095;-82
2023/06/25 07:45:54;;;;;;;;;;;31.40;89.50;;;;;;5005920;28;19925;-81
2023/06/25 07:48:20;;;;;;;;;;;31.60;86.50;;;;;;4998409;28;19925;-81
2023/06/25 07:50:45;;;;;;;;;;;31.70;88.90;;;;;;5005018;28;19984;-81
2023/06/25 07:53:11;;;;;;;;;;;31.70;78.90;;;;;;5004471;28;20446;-81
2023/06/25 07:55:40;;;;;;;;;;;31.60;85.80;;;;;;5005874;28;19929;-81
2023/06/25 07:58:06;;;;;;;;;;;31.70;81.90;;;;;;5019094;28;19937;-81
2023/06/25 08:00:32;;;;;;;;;;;31.80;82.60;;;;;;5026702;28;19932;-81
2023/06/25 08:02:57;;;;;;;;;;;32.00;81.60;;;;;;5003704;28;19928;-81
2023/06/25 08:05:23;;;;;;;;;;;32.10;84.10;;;;;;4984959;28;20019;-81
2023/06/25 08:07:49;;;;;;;;;;;32.20;81.30;;;;;;5034365;28;19939;-81
2023/06/25 08:10:14;;;;;;;;;;;32.30;78.90;;;;;;5006319;28;20404;-81
2023/06/25 08:12:40;;;;;;;;;;;32.30;77.80;;;;;;5010351;28;19925;-81
2023/06/25 08:15:05;;;;;;;;;;;32.30;74.10;;;;;;5043976;28;19932;-82
2023/06/25 08:17:31;;;;;;;;;;;32.40;81.00;;;;;;5027646;28;19925;-81
2023/06/25 08:19:57;;;;;;;;;;;32.40;76.20;;;;;;5011759;28;19928;-82
2023/06/25 08:22:22;;;;;;;;;;;32.40;75.10;;;;;;4993384;28;19936;-81
2023/06/25 08:24:48;;;;;;;;;;;32.30;71.50;;;;;;4984910;28;19929;-81
2023/06/25 08:27:13;;;;;;;;;;;32.40;74.80;;;;;;5008074;28;19933;-81
2023/06/25 08:29:39;;;;;;;;;;;32.50;77.50;;;;;;5007472;28;20385;-82
2023/06/25 08:32:05;;;;;;;;;;;32.50;75.10;;;;;;5010720;28;19936;-81
2023/06/25 08:34:31;;;;;;;;;;;32.60;73.60;;;;;;4988964;28;19925;-81
2023/06/25 08:36:56;;;;;;;;;;;32.60;73.70;;;;;;5006967;28;19980;-81
2023/06/25 08:39:22;;;;;;;;;;;32.40;74.00;;;;;;5006678;28;19925;-81
2023/06/25 08:41:48;;;;;;;;;;;32.50;71.30;;;;;;4993788;28;19996;-82
2023/06/25 08:44:14;;;;;;;;;;;32.50;73.40;;;;;;5008528;28;19974;-81
2023/06/25 08:46:44;;;;;;;;;;;32.70;69.80;;;;;;5010058;28;19968;-82
2023/06/25 08:49:09;;;;;;;;;;;32.60;67.20;;;;;;5009910;28;20446;-82
2023/06/25 08:51:35;;;;;;;;;;;32.60;67.60;;;;;;4993726;28;19929;-82
2023/06/25 08:54:01;;;;;;;;;;;32.70;63.80;;;;;;5008378;28;19925;-82
2023/06/25 08:56:27;;;;;;;;;;;32.80;65.90;;;;;;5008761;28;20059;-82
2023/06/25 08:58:52;;;;;;;;;;;32.80;60.90;;;;;;4994068;28;20060;-83
2023/06/25 09:01:18;;;;;;;;;;;32.70;61.20;;;;;;5006720;28;19925;-81
2023/06/25 09:03:44;;;;;;;;;;;32.70;64.20;;;;;;5009554;28;19995;-82
2023/06/25 09:06:14;;;;;;;;;;;32.60;67.20;;;;;;5003337;28;19979;-82
2023/06/25 09:08:40;;;;;;;;;;;32.60;65.50;;;;;;5009757;28;20008;-81
2023/06/25 09:11:06;;;;;;;;;;;32.60;65.10;;;;;;5007491;28;19933;-81
2023/06/25 09:13:31;;;;;;;;;;;32.60;66.40;;;;;;5009037;28;20280;-82
2023/06/25 09:16:01;;;;;;;;;;;32.80;61.10;;;;;;5039272;28;20370;-81
2023/06/25 09:18:27;;;;;;;;;;;32.80;62.10;;;;;;5022790;28;19928;-82
2023/06/25 09:20:52;;;;;;;;;;;32.80;64.70;;;;;;5021991;28;19932;-82
2023/06/25 09:23:19;;;;;;;;;;;32.80;62.30;;;;;;5015908;28;19925;-85
2023/06/25 09:25:44;;;;;;;;;;;33.10;63.10;;;;;;5008083;28;19948;-83
2023/06/25 09:28:10;;;;;;;;;;;33.10;62.60;;;;;;4992582;28;20381;-83
2023/06/25 09:30:38;;;;;;;;;;;33.10;63.20;;;;;;5005912;28;20016;-84
2023/06/25 09:33:05;;;;;;;;;;;33.00;60.00;;;;;;5005081;28;19928;-83
2023/06/25 09:35:31;;;;;;;;;;;32.90;59.30;;;;;;5007179;28;19925;-84
2023/06/25 09:37:57;;;;;;;;;;;32.90;59.40;;;;;;4991930;28;20040;-84
2023/06/25 09:40:22;;;;;;;;;;;33.00;61.30;;;;;;5008243;28;19925;-83
2023/06/25 09:42:49;;;;;;;;;;;33.10;63.60;;;;;;4989134;28;19925;-82
2023/06/25 09:45:15;;;;;;;;;;;33.10;60.20;;;;;;5008518;28;19929;-81
2023/06/25 09:47:42;;;;;;;;;;;33.30;60.90;;;;;;5007625;28;19929;-81
2023/06/25 09:50:10;;;;;;;;;;;33.30;59.10;;;;;;5008324;28;19929;-82
2023/06/25 09:52:36;;;;;;;;;;;33.10;59.10;;;;;;5003385;28;19931;-81
2023/06/25 09:55:02;;;;;;;;;;;33.10;60.80;;;;;;5007332;28;19925;-81
2023/06/25 09:57:28;;;;;;;;;;;33.10;61.90;;;;;;5023568;28;20474;-82
2023/06/25 09:59:54;;;;;;;;;;;33.10;60.60;;;;;;5005727;28;19980;-81
2023/06/25 10:02:20;;;;;;;;;;;33.20;59.70;;;;;;5003359;28;19937;-81
2023/06/25 10:04:45;;;;;;;;;;;33.30;59.20;;;;;;5004592;28;19933;-82
2023/06/25 10:07:11;;;;;;;;;;;33.30;59.40;;;;;;5003395;28;20379;-82
2023/06/25 10:09:37;;;;;;;;;;;33.30;58.50;;;;;;4990538;28;20344;-81
2023/06/25 10:12:02;;;;;;;;;;;33.40;58.80;;;;;;5003944;28;19951;-82
2023/06/25 10:14:35;;;;;;;;;;;33.50;58.40;;;;;;4983500;28;19932;-82
2023/06/25 10:17:03;;;;;;;;;;;33.40;57.50;;;;;;4999577;28;20032;-82
2023/06/25 10:19:29;;;;;;;;;;;33.40;58.10;;;;;;5003932;28;19925;-82
2023/06/25 10:21:59;;;;;;;;;;;33.50;56.60;;;;;;5005996;28;19929;-82
2023/06/25 10:24:24;;;;;;;;;;;33.70;54.70;;;;;;5003922;28;19929;-83
2023/06/25 10:26:53;;;;;;;;;;;33.70;56.30;;;;;;5004104;28;19925;-81
2023/06/25 10:29:19;;;;;;;;;;;33.80;57.50;;;;;;5007156;28;20030;-83
2023/06/25 10:31:44;;;;;;;;;;;33.80;53.80;;;;;;5007797;28;20385;-82
2023/06/25 10:34:10;;;;;;;;;;;33.90;55.60;;;;;;4990373;28;19932;-83
2023/06/25 10:36:36;;;;;;;;;;;33.90;53.70;;;;;;4989564;28;20365;-83
2023/06/25 10:39:02;;;;;;;;;;;33.90;53.50;;;;;;5019760;28;19929;-82
2023/06/25 10:41:31;;;;;;;;;;;34.00;53.40;;;;;;5006220;28;19936;-82
2023/06/25 10:43:57;;;;;;;;;;;34.10;53.80;;;;;;4988585;28;19934;-83
2023/06/25 10:46:29;;;;;;;;;;;34.30;53.60;;;;;;5016140;28;20015;-82
2023/06/25 10:48:55;;;;;;;;;;;34.20;52.10;;;;;;5019359;28;19959;-82
2023/06/25 10:51:21;;;;;;;;;;;34.30;53.60;;;;;;5001372;28;19976;-82
2023/06/25 10:53:47;;;;;;;;;;;34.30;53.50;;;;;;5000233;28;19933;-81
2023/06/25 10:56:13;;;;;;;;;;;34.20;51.40;;;;;;4987244;28;19949;-81
2023/06/25 10:58:41;;;;;;;;;;;34.10;53.40;;;;;;5006715;28;19944;-81
2023/06/25 11:01:07;;;;;;;;;;;34.10;51.70;;;;;;4987937;28;20361;-82
2023/06/25 11:03:36;;;;;;;;;;;34.00;54.60;;;;;;4989903;28;19929;-82
2023/06/25 11:06:01;;;;;;;;;;;34.00;53.50;;;;;;5001938;28;19963;-82
2023/06/25 11:08:27;;;;;;;;;;;34.00;55.10;;;;;;5002700;28;19935;-82
2023/06/25 11:10:53;;;;;;;;;;;34.00;52.70;;;;;;4982837;28;19968;-81
2023/06/25 11:13:18;;;;;;;;;;;34.10;52.90;;;;;;4987134;28;19925;-82
2023/06/25 11:15:44;;;;;;;;;;;34.10;53.60;;;;;;4987697;28;19932;-80
2023/06/25 11:18:10;;;;;;;;;;;34.20;53.10;;;;;;5001595;28;19925;-81
2023/06/25 11:20:38;;;;;;;;;;;34.20;53.70;;;;;;5002710;28;20171;-81
2023/06/25 11:23:04;;;;;;;;;;;34.20;51.90;;;;;;5002565;28;19929;-81
2023/06/25 11:25:30;;;;;;;;;;;34.10;55.60;;;;;;5020733;28;19925;-80
2023/06/25 11:28:05;;;;;;;;;;;34.10;54.80;;;;;;5021747;28;19929;-81
2023/06/25 11:30:30;;;;;;;;;;;34.10;53.50;;;;;;5003138;28;19965;-81
2023/06/25 11:33:09;;;;;;;;;;;34.20;52.90;;;;;;5009992;28;20082;-81
2023/06/25 11:35:35;;;;;;;;;;;34.20;53.80;;;;;;5016752;28;19931;-81
2023/06/25 11:38:00;;;;;;;;;;;34.30;55.50;;;;;;5003877;28;19961;-82
2023/06/25 11:40:27;;;;;;;;;;;34.30;54.10;;;;;;5021305;28;19929;-81
2023/06/25 11:42:53;;;;;;;;;;;34.20;54.80;;;;;;4984234;28;20411;-82
2023/06/25 11:45:19;;;;;;;;;;;34.10;54.30;;;;;;5022094;28;19939;-81
2023/06/25 11:47:50;;;;;;;;;;;34.10;54.60;;;;;;4986507;28;19925;-80
2023/06/25 11:50:26;;;;;;;;;;;34.20;55.40;;;;;;5002799;28;19929;-83
2023/06/25 11:52:54;;;;;;;;;;;34.20;54.90;;;;;;4987954;28;20392;-81
2023/06/25 11:55:21;;;;;;;;;;;34.20;56.50;;;;;;5020902;28;19932;-82
2023/06/25 11:57:47;;;;;;;;;;;34.30;54.30;;;;;;5014955;28;19929;-82
2023/06/25 12:00:13;;;;;;;;;;;34.40;55.30;;;;;;5005413;28;19932;-81
2023/06/25 12:02:39;;;;;;;;;;;34.40;54.30;;;;;;5021055;28;19925;-81
2023/06/25 12:05:04;;;;;;;;;;;34.40;53.70;;;;;;4988160;28;19972;-80
2023/06/25 12:07:30;;;;;;;;;;;34.40;54.40;;;;;;4982548;28;19948;-80
2023/06/25 12:09:56;;;;;;;;;;;34.30;55.00;;;;;;5001163;28;19925;-80
2023/06/25 12:12:21;;;;;;;;;;;34.30;54.60;;;;;;5000789;28;19925;-81
2023/06/25 12:14:47;;;;;;;;;;;34.50;53.90;;;;;;5003682;28;19929;-81
2023/06/25 12:17:13;;;;;;;;;;;34.60;52.70;;;;;;5003625;28;20262;-83
2023/06/25 12:19:39;;;;;;;;;;;34.60;53.70;;;;;;5005877;28;19926;-82
2023/06/25 12:22:05;;;;;;;;;;;34.60;53.30;;;;;;5005066;28;19925;-81
2023/06/25 12:24:30;;;;;;;;;;;34.60;51.60;;;;;;5015229;28;20350;-81
2023/06/25 12:26:56;;;;;;;;;;;34.60;52.80;;;;;;5003471;28;19972;-82
2023/06/25 12:29:21;;;;;;;;;;;34.60;53.90;;;;;;5002030;28;20003;-82
2023/06/25 12:31:47;;;;;;;;;;;34.60;53.50;;;;;;5021849;28;19929;-82
2023/06/25 12:34:13;;;;;;;;;;;34.60;52.70;;;;;;4987831;28;19929;-82
2023/06/25 12:36:38;;;;;;;;;;;34.50;52.10;;;;;;5036709;28;19956;-81
2023/06/25 12:39:04;;;;;;;;;;;34.50;53.50;;;;;;4986833;28;19926;-82
2023/06/25 12:41:30;;;;;;;;;;;34.40;52.90;;;;;;5000790;28;19974;-81
2023/06/25 12:43:55;;;;;;;;;;;34.30;52.80;;;;;;4988783;28;19975;-81
2023/06/25 12:46:21;;;;;;;;;;;34.30;53.20;;;;;;5016787;28;19963;-83
2023/06/25 12:48:47;;;;;;;;;;;34.30;53.50;;;;;;5004179;28;19933;-83
2023/06/25 12:51:12;;;;;;;;;;;34.40;54.20;;;;;;5006136;28;19981;-82
2023/06/25 12:53:38;;;;;;;;;;;34.50;54.90;;;;;;5007926;28;19926;-83
2023/06/25 12:56:04;;;;;;;;;;;34.50;53.00;;;;;;5022193;28;19932;-82
2023/06/25 12:58:30;;;;;;;;;;;34.40;52.40;;;;;;4991557;28;19990;-83
2023/06/25 13:00:55;;;;;;;;;;;34.40;55.60;;;;;;5005904;28;19955;-82
2023/06/25 13:03:21;;;;;;;;;;;34.50;54.00;;;;;;5007932;28;19926;-83
2023/06/25 13:05:46;;;;;;;;;;;34.50;53.80;;;;;;4987997;28;19933;-82
2023/06/25 13:08:15;;;;;;;;;;;34.60;54.10;;;;;;5004462;28;19931;-83
2023/06/25 13:10:41;;;;;;;;;;;34.70;50.80;;;;;;5007300;28;20289;-82
2023/06/25 13:13:07;;;;;;;;;;;34.70;51.70;;;;;;5005206;28;19940;-82
2023/06/25 13:15:32;;;;;;;;;;;34.60;53.00;;;;;;5006252;28;19929;-81
2023/06/25 13:17:58;;;;;;;;;;;34.50;52.90;;;;;;5006891;28;19929;-82
2023/06/25 13:20:24;;;;;;;;;;;34.50;52.50;;;;;;5025139;28;19925;-83
2023/06/25 13:22:49;;;;;;;;;;;34.60;51.90;;;;;;5008437;28;20375;-83
2023/06/25 13:25:15;;;;;;;;;;;34.60;51.80;;;;;;5013095;28;19925;-82
2023/06/25 13:27:41;;;;;;;;;;;34.50;52.30;;;;;;5008096;28;20014;-82
2023/06/25 13:30:07;;;;;;;;;;;34.60;53.50;;;;;;5008271;28;20415;-83
2023/06/25 13:32:33;;;;;;;;;;;34.60;51.80;;;;;;4992250;28;19948;-82
2023/06/25 13:34:58;;;;;;;;;;;34.60;52.40;;;;;;5018324;28;19929;-82
2023/06/25 13:37:24;;;;;;;;;;;34.60;54.30;;;;;;5011179;28;19925;-82
2023/06/25 13:39:50;;;;;;;;;;;34.50;52.90;;;;;;4990711;28;19925;-82
2023/06/25 13:42:15;;;;;;;;;;;34.30;52.60;;;;;;5007868;28;19929;-82
2023/06/25 13:44:41;;;;;;;;;;;34.20;52.60;;;;;;5031177;28;19931;-82
2023/06/25 13:47:07;;;;;;;;;;;34.30;52.30;;;;;;5015190;28;20010;-82
2023/06/25 13:49:33;;;;;;;;;;;34.30;53.10;;;;;;5007133;28;19932;-83
2023/06/25 13:51:59;;;;;;;;;;;34.30;49.60;;;;;;5007651;28;19925;-83
2023/06/25 13:54:24;;;;;;;;;;;34.30;51.80;;;;;;4991386;28;19971;-82
2023/06/25 13:56:51;;;;;;;;;;;34.20;52.30;;;;;;5023805;28;19976;-83
2023/06/25 13:59:20;;;;;;;;;;;34.20;51.60;;;;;;5023155;28;19933;-83
2023/06/25 14:01:46;;;;;;;;;;;34.20;50.50;;;;;;5006657;28;19925;-82
2023/06/25 14:04:11;;;;;;;;;;;34.30;50.00;;;;;;4991052;28;19936;-82
2023/06/25 14:06:37;;;;;;;;;;;34.30;51.40;;;;;;5024487;28;19929;-82
2023/06/25 14:09:03;;;;;;;;;;;34.30;50.70;;;;;;5023498;28;19981;-82